sensor_id;sensor_type;location;lat;lon;timestamp;temperature;humidity
84916;DHT22;75178;53.054;5.846;2024-02-14T00:01:44;6.80;99.90
84916;DHT22;75178;53.054;5.846;2024-02-14T00:04:28;6.80;99.90
84916;DHT22;75178;53.054;5.846;2024-02-14T00:07:13;6.90;99.90
84916;DHT22;75178;53.054;5.846;2024-02-14T00:09:57;6.90;99.90
84916;DHT22;75178;53.054;5.846;2024-02-14T00:12:42;6.90;99.90
84916;DHT22;75178;53.054;5.846;2024-02-14T00:15:26;6.80;99.90
84916;DHT22;75178;53.054;5.846;2024-02-14T00:18:10;6.90;99.90
84916;DHT22;75178;53.054;5.846;2024-02-14T00:20:54;6.90;99.90
84916;DHT22;75178;53.054;5.846;2024-02-14T00:23:40;6.90;99.90
84916;DHT22;75178;53.054;5.846;2024-02-14T00:26:24;6.90;99.90
84916;DHT22;75178;53.054;5.846;2024-02-14T00:29:08;6.90;99.90
84916;DHT22;75178;53.054;5.846;2024-02-14T00:31:52;6.90;99.90
84916;DHT22;75178;53.054;5.846;2024-02-14T00:34:37;6.90;99.90
84916;DHT22;75178;53.054;5.846;2024-02-14T00:37:21;6.90;99.90
84916;DHT22;75178;53.054;5.846;2024-02-14T00:40:08;7.00;99.90
84916;DHT22;75178;53.054;5.846;2024-02-14T00:42:52;7.00;99.90
84916;DHT22;75178;53.054;5.846;2024-02-14T00:45:36;7.00;99.90
84916;DHT22;75178;53.054;5.846;2024-02-14T00:48:20;7.00;99.90
84916;DHT22;75178;53.054;5.846;2024-02-14T00:51:05;7.10;99.90
84916;DHT22;75178;53.054;5.846;2024-02-14T00:53:49;7.10;99.90
84916;DHT22;75178;53.054;5.846;2024-02-14T00:56:35;7.10;99.90
84916;DHT22;75178;53.054;5.846;2024-02-14T00:59:19;7.20;99.90
84916;DHT22;75178;53.054;5.846;2024-02-14T01:02:03;7.20;99.90
84916;DHT22;75178;53.054;5.846;2024-02-14T01:04:47;7.20;99.90
84916;DHT22;75178;53.054;5.846;2024-02-14T01:07:31;7.20;99.90
84916;DHT22;75178;53.054;5.846;2024-02-14T01:10:16;7.30;99.90
84916;DHT22;75178;53.054;5.846;2024-02-14T01:13:02;7.30;99.90
84916;DHT22;75178;53.054;5.846;2024-02-14T01:15:46;7.30;99.90
84916;DHT22;75178;53.054;5.846;2024-02-14T01:18:30;7.30;99.90
84916;DHT22;75178;53.054;5.846;2024-02-14T01:21:14;7.40;99.90
84916;DHT22;75178;53.054;5.846;2024-02-14T01:23:59;7.40;99.90
84916;DHT22;75178;53.054;5.846;2024-02-14T01:26:43;7.40;99.90
84916;DHT22;75178;53.054;5.846;2024-02-14T01:29:28;7.40;99.90
84916;DHT22;75178;53.054;5.846;2024-02-14T01:32:13;7.50;99.90
84916;DHT22;75178;53.054;5.846;2024-02-14T01:34:57;7.50;99.90
84916;DHT22;75178;53.054;5.846;2024-02-14T01:37:41;7.50;99.90
84916;DHT22;75178;53.054;5.846;2024-02-14T01:40:25;7.50;99.90
84916;DHT22;75178;53.054;5.846;2024-02-14T01:43:09;7.60;99.90
84916;DHT22;75178;53.054;5.846;2024-02-14T01:45:56;7.60;99.90
84916;DHT22;75178;53.054;5.846;2024-02-14T01:48:45;7.60;99.90
84916;DHT22;75178;53.054;5.846;2024-02-14T01:51:30;7.70;99.90
84916;DHT22;75178;53.054;5.846;2024-02-14T01:54:16;7.70;99.90
84916;DHT22;75178;53.054;5.846;2024-02-14T01:57:01;7.70;99.90
84916;DHT22;75178;53.054;5.846;2024-02-14T01:59:45;7.80;99.90
84916;DHT22;75178;53.054;5.846;2024-02-14T02:02:32;7.80;99.90
84916;DHT22;75178;53.054;5.846;2024-02-14T02:05:16;7.90;99.90
84916;DHT22;75178;53.054;5.846;2024-02-14T02:08:00;7.90;99.90
84916;DHT22;75178;53.054;5.846;2024-02-14T02:10:45;8.00;99.90
84916;DHT22;75178;53.054;5.846;2024-02-14T02:13:29;8.00;99.90
84916;DHT22;75178;53.054;5.846;2024-02-14T02:16:13;8.10;99.90
84916;DHT22;75178;53.054;5.846;2024-02-14T02:18:59;8.20;99.90
84916;DHT22;75178;53.054;5.846;2024-02-14T02:21:43;8.20;99.90
84916;DHT22;75178;53.054;5.846;2024-02-14T02:24:29;8.20;99.90
84916;DHT22;75178;53.054;5.846;2024-02-14T02:27:13;8.20;99.90
84916;DHT22;75178;53.054;5.846;2024-02-14T02:29:57;8.30;99.90
84916;DHT22;75178;53.054;5.846;2024-02-14T02:32:42;8.30;99.90
84916;DHT22;75178;53.054;5.846;2024-02-14T02:35:26;8.30;99.90
84916;DHT22;75178;53.054;5.846;2024-02-14T02:38:11;8.30;99.90
84916;DHT22;75178;53.054;5.846;2024-02-14T02:40:56;8.30;99.90
84916;DHT22;75178;53.054;5.846;2024-02-14T02:43:41;8.30;99.90
84916;DHT22;75178;53.054;5.846;2024-02-14T02:46:25;8.30;99.90
84916;DHT22;75178;53.054;5.846;2024-02-14T02:49:09;8.30;99.90
84916;DHT22;75178;53.054;5.846;2024-02-14T02:51:53;8.30;99.90
84916;DHT22;75178;53.054;5.846;2024-02-14T02:54:37;8.30;99.90
84916;DHT22;75178;53.054;5.846;2024-02-14T02:57:23;8.30;99.90
84916;DHT22;75178;53.054;5.846;2024-02-14T03:00:08;8.30;99.90
84916;DHT22;75178;53.054;5.846;2024-02-14T03:02:52;8.30;99.90
84916;DHT22;75178;53.054;5.846;2024-02-14T03:05:36;8.30;99.90
84916;DHT22;75178;53.054;5.846;2024-02-14T03:08:21;8.40;99.90
84916;DHT22;75178;53.054;5.846;2024-02-14T03:11:05;8.40;99.90
84916;DHT22;75178;53.054;5.846;2024-02-14T03:13:51;8.40;99.90
84916;DHT22;75178;53.054;5.846;2024-02-14T03:16:35;8.40;99.90
84916;DHT22;75178;53.054;5.846;2024-02-14T03:19:19;8.40;99.90
84916;DHT22;75178;53.054;5.846;2024-02-14T03:22:03;8.40;99.90
84916;DHT22;75178;53.054;5.846;2024-02-14T03:24:48;8.40;99.90
84916;DHT22;75178;53.054;5.846;2024-02-14T03:27:32;8.40;99.90
84916;DHT22;75178;53.054;5.846;2024-02-14T03:30:18;8.50;99.90
84916;DHT22;75178;53.054;5.846;2024-02-14T03:33:03;8.50;99.90
84916;DHT22;75178;53.054;5.846;2024-02-14T03:35:47;8.50;99.90
84916;DHT22;75178;53.054;5.846;2024-02-14T03:38:31;8.50;99.90
84916;DHT22;75178;53.054;5.846;2024-02-14T03:41:15;8.60;99.90
84916;DHT22;75178;53.054;5.846;2024-02-14T03:43:59;8.60;99.90
84916;DHT22;75178;53.054;5.846;2024-02-14T03:46:45;8.70;99.90
84916;DHT22;75178;53.054;5.846;2024-02-14T03:49:29;8.70;99.90
84916;DHT22;75178;53.054;5.846;2024-02-14T03:52:13;8.80;99.90
84916;DHT22;75178;53.054;5.846;2024-02-14T03:54:58;8.80;99.90
84916;DHT22;75178;53.054;5.846;2024-02-14T03:57:42;8.90;99.90
84916;DHT22;75178;53.054;5.846;2024-02-14T04:00:26;8.90;99.90
84916;DHT22;75178;53.054;5.846;2024-02-14T04:03:13;8.90;99.90
84916;DHT22;75178;53.054;5.846;2024-02-14T04:05:57;9.00;99.90
84916;DHT22;75178;53.054;5.846;2024-02-14T04:08:41;9.00;99.90
84916;DHT22;75178;53.054;5.846;2024-02-14T04:11:25;9.00;99.90
84916;DHT22;75178;53.054;5.846;2024-02-14T04:14:09;9.00;99.90
84916;DHT22;75178;53.054;5.846;2024-02-14T04:16:54;9.00;99.90
84916;DHT22;75178;53.054;5.846;2024-02-14T04:19:40;9.00;99.90
84916;DHT22;75178;53.054;5.846;2024-02-14T04:22:24;9.00;99.90
84916;DHT22;75178;53.054;5.846;2024-02-14T04:25:08;9.00;99.90
84916;DHT22;75178;53.054;5.846;2024-02-14T04:27:54;9.00;99.90
84916;DHT22;75178;53.054;5.846;2024-02-14T04:30:39;9.10;99.90
84916;DHT22;75178;53.054;5.846;2024-02-14T04:33:23;9.10;99.90
84916;DHT22;75178;53.054;5.846;2024-02-14T04:36:08;9.10;99.90
84916;DHT22;75178;53.054;5.846;2024-02-14T04:38:53;9.10;99.90
84916;DHT22;75178;53.054;5.846;2024-02-14T04:41:37;9.10;99.90
84916;DHT22;75178;53.054;5.846;2024-02-14T04:44:21;9.10;99.90
84916;DHT22;75178;53.054;5.846;2024-02-14T04:47:05;9.10;99.90
84916;DHT22;75178;53.054;5.846;2024-02-14T04:49:49;9.20;99.90
84916;DHT22;75178;53.054;5.846;2024-02-14T04:52:35;9.20;99.90
84916;DHT22;75178;53.054;5.846;2024-02-14T04:55:19;9.20;99.90
84916;DHT22;75178;53.054;5.846;2024-02-14T04:58:03;9.20;99.90
84916;DHT22;75178;53.054;5.846;2024-02-14T05:00:47;9.20;99.90
84916;DHT22;75178;53.054;5.846;2024-02-14T05:03:32;9.30;99.90
84916;DHT22;75178;53.054;5.846;2024-02-14T05:06:16;9.30;99.90
84916;DHT22;75178;53.054;5.846;2024-02-14T05:09:01;9.30;99.90
84916;DHT22;75178;53.054;5.846;2024-02-14T05:11:46;9.30;99.90
84916;DHT22;75178;53.054;5.846;2024-02-14T05:14:30;9.40;99.90
84916;DHT22;75178;53.054;5.846;2024-02-14T05:17:14;9.40;99.90
84916;DHT22;75178;53.054;5.846;2024-02-14T05:19:58;9.40;99.90
84916;DHT22;75178;53.054;5.846;2024-02-14T05:22:42;9.40;99.90
84916;DHT22;75178;53.054;5.846;2024-02-14T05:25:28;9.40;99.90
84916;DHT22;75178;53.054;5.846;2024-02-14T05:28:12;9.40;99.90
84916;DHT22;75178;53.054;5.846;2024-02-14T05:30:56;9.40;99.90
84916;DHT22;75178;53.054;5.846;2024-02-14T05:33:41;9.40;99.90
84916;DHT22;75178;53.054;5.846;2024-02-14T05:36:25;9.40;99.90
84916;DHT22;75178;53.054;5.846;2024-02-14T05:39:09;9.40;99.90
84916;DHT22;75178;53.054;5.846;2024-02-14T05:41:55;9.40;99.90
84916;DHT22;75178;53.054;5.846;2024-02-14T05:44:39;9.40;99.90
84916;DHT22;75178;53.054;5.846;2024-02-14T05:47:23;9.40;99.90
84916;DHT22;75178;53.054;5.846;2024-02-14T05:50:07;9.50;99.90
84916;DHT22;75178;53.054;5.846;2024-02-14T05:52:52;9.40;99.90
84916;DHT22;75178;53.054;5.846;2024-02-14T05:55:36;9.50;99.90
84916;DHT22;75178;53.054;5.846;2024-02-14T05:58:22;9.50;99.90
84916;DHT22;75178;53.054;5.846;2024-02-14T06:01:06;9.50;99.90
84916;DHT22;75178;53.054;5.846;2024-02-14T06:03:50;9.50;99.90
84916;DHT22;75178;53.054;5.846;2024-02-14T06:06:34;9.50;99.90
84916;DHT22;75178;53.054;5.846;2024-02-14T06:09:18;9.50;99.90
84916;DHT22;75178;53.054;5.846;2024-02-14T06:12:03;9.50;99.90
84916;DHT22;75178;53.054;5.846;2024-02-14T06:14:49;9.50;99.90
84916;DHT22;75178;53.054;5.846;2024-02-14T06:17:33;9.50;99.90
84916;DHT22;75178;53.054;5.846;2024-02-14T06:20:17;9.40;99.90
84916;DHT22;75178;53.054;5.846;2024-02-14T06:23:01;9.40;99.90
84916;DHT22;75178;53.054;5.846;2024-02-14T06:25:46;9.40;99.90
84916;DHT22;75178;53.054;5.846;2024-02-14T06:28:30;9.40;99.90
84916;DHT22;75178;53.054;5.846;2024-02-14T06:31:15;9.40;99.90
84916;DHT22;75178;53.054;5.846;2024-02-14T06:34:00;9.40;99.90
84916;DHT22;75178;53.054;5.846;2024-02-14T06:36:44;9.40;99.90
84916;DHT22;75178;53.054;5.846;2024-02-14T06:39:28;9.40;99.90
84916;DHT22;75178;53.054;5.846;2024-02-14T06:42:12;9.40;99.90
84916;DHT22;75178;53.054;5.846;2024-02-14T06:44:56;9.40;99.90
84916;DHT22;75178;53.054;5.846;2024-02-14T06:47:42;9.40;99.90
84916;DHT22;75178;53.054;5.846;2024-02-14T06:50:26;9.50;99.90
84916;DHT22;75178;53.054;5.846;2024-02-14T06:53:11;9.50;99.90
84916;DHT22;75178;53.054;5.846;2024-02-14T06:55:55;9.40;99.90
84916;DHT22;75178;53.054;5.846;2024-02-14T06:58:43;9.50;99.90
84916;DHT22;75178;53.054;5.846;2024-02-14T07:01:36;9.40;99.90
84916;DHT22;75178;53.054;5.846;2024-02-14T07:04:23;9.50;99.90
84916;DHT22;75178;53.054;5.846;2024-02-14T07:07:08;9.40;99.90
84916;DHT22;75178;53.054;5.846;2024-02-14T07:09:53;9.50;99.90
84916;DHT22;75178;53.054;5.846;2024-02-14T07:12:37;9.50;99.90
84916;DHT22;75178;53.054;5.846;2024-02-14T07:15:21;9.50;99.90
84916;DHT22;75178;53.054;5.846;2024-02-14T07:18:05;9.50;99.90
84916;DHT22;75178;53.054;5.846;2024-02-14T07:20:51;9.50;99.90
84916;DHT22;75178;53.054;5.846;2024-02-14T07:23:35;9.50;99.90
84916;DHT22;75178;53.054;5.846;2024-02-14T07:26:19;9.50;99.90
84916;DHT22;75178;53.054;5.846;2024-02-14T07:29:03;9.50;99.90
84916;DHT22;75178;53.054;5.846;2024-02-14T07:31:47;9.50;99.90
84916;DHT22;75178;53.054;5.846;2024-02-14T07:34:31;9.50;99.90
84916;DHT22;75178;53.054;5.846;2024-02-14T07:37:17;9.50;99.90
84916;DHT22;75178;53.054;5.846;2024-02-14T07:40:01;9.60;99.90
84916;DHT22;75178;53.054;5.846;2024-02-14T07:42:45;9.60;99.90
84916;DHT22;75178;53.054;5.846;2024-02-14T07:45:29;9.60;99.90
84916;DHT22;75178;53.054;5.846;2024-02-14T07:48:13;9.60;99.90
84916;DHT22;75178;53.054;5.846;2024-02-14T07:50:57;9.60;99.90
84916;DHT22;75178;53.054;5.846;2024-02-14T07:53:43;9.60;99.90
84916;DHT22;75178;53.054;5.846;2024-02-14T07:56:28;9.60;99.90
84916;DHT22;75178;53.054;5.846;2024-02-14T07:59:13;9.70;99.90
84916;DHT22;75178;53.054;5.846;2024-02-14T08:01:57;9.70;99.90
84916;DHT22;75178;53.054;5.846;2024-02-14T08:04:41;9.70;99.90
84916;DHT22;75178;53.054;5.846;2024-02-14T08:07:25;9.70;99.90
84916;DHT22;75178;53.054;5.846;2024-02-14T08:10:11;9.80;99.90
84916;DHT22;75178;53.054;5.846;2024-02-14T08:12:55;9.80;99.90
84916;DHT22;75178;53.054;5.846;2024-02-14T08:15:39;9.80;99.90
84916;DHT22;75178;53.054;5.846;2024-02-14T08:18:23;9.80;99.90
84916;DHT22;75178;53.054;5.846;2024-02-14T08:21:07;9.80;99.90
84916;DHT22;75178;53.054;5.846;2024-02-14T08:23:51;9.90;99.90
84916;DHT22;75178;53.054;5.846;2024-02-14T08:26:37;9.90;99.90
84916;DHT22;75178;53.054;5.846;2024-02-14T08:29:21;9.90;99.90
84916;DHT22;75178;53.054;5.846;2024-02-14T08:32:06;9.90;99.90
84916;DHT22;75178;53.054;5.846;2024-02-14T08:34:50;9.90;99.90
84916;DHT22;75178;53.054;5.846;2024-02-14T08:37:34;10.00;99.90
84916;DHT22;75178;53.054;5.846;2024-02-14T08:40:18;10.00;99.90
84916;DHT22;75178;53.054;5.846;2024-02-14T08:43:04;10.00;99.90
84916;DHT22;75178;53.054;5.846;2024-02-14T08:45:48;10.00;99.90
84916;DHT22;75178;53.054;5.846;2024-02-14T08:48:32;10.00;99.90
84916;DHT22;75178;53.054;5.846;2024-02-14T08:51:16;10.00;99.90
84916;DHT22;75178;53.054;5.846;2024-02-14T08:54:01;10.10;99.90
84916;DHT22;75178;53.054;5.846;2024-02-14T08:56:45;10.00;99.90
84916;DHT22;75178;53.054;5.846;2024-02-14T08:59:31;10.10;99.90
84916;DHT22;75178;53.054;5.846;2024-02-14T09:02:16;10.10;99.90
84916;DHT22;75178;53.054;5.846;2024-02-14T09:05:00;10.10;99.90
84916;DHT22;75178;53.054;5.846;2024-02-14T09:07:45;10.10;99.90
84916;DHT22;75178;53.054;5.846;2024-02-14T09:10:29;10.10;99.90
84916;DHT22;75178;53.054;5.846;2024-02-14T09:13:13;10.10;99.90
84916;DHT22;75178;53.054;5.846;2024-02-14T09:15:58;10.10;99.90
84916;DHT22;75178;53.054;5.846;2024-02-14T09:18:45;10.10;99.90
84916;DHT22;75178;53.054;5.846;2024-02-14T09:21:29;10.20;99.90
84916;DHT22;75178;53.054;5.846;2024-02-14T09:24:13;10.20;99.90
84916;DHT22;75178;53.054;5.846;2024-02-14T09:26:57;10.20;99.90
84916;DHT22;75178;53.054;5.846;2024-02-14T09:29:42;10.20;99.90
84916;DHT22;75178;53.054;5.846;2024-02-14T09:32:27;10.30;99.90
84916;DHT22;75178;53.054;5.846;2024-02-14T09:35:11;10.30;99.90
84916;DHT22;75178;53.054;5.846;2024-02-14T09:37:56;10.30;99.90
84916;DHT22;75178;53.054;5.846;2024-02-14T09:40:40;10.30;99.90
84916;DHT22;75178;53.054;5.846;2024-02-14T09:43:28;10.40;99.90
84916;DHT22;75178;53.054;5.846;2024-02-14T09:46:15;10.30;99.90
84916;DHT22;75178;53.054;5.846;2024-02-14T09:49:01;10.40;99.90
84916;DHT22;75178;53.054;5.846;2024-02-14T09:51:48;10.40;99.90
84916;DHT22;75178;53.054;5.846;2024-02-14T09:54:32;10.40;99.90
84916;DHT22;75178;53.054;5.846;2024-02-14T09:57:17;10.40;99.90
84916;DHT22;75178;53.054;5.846;2024-02-14T10:00:02;10.40;99.90
84916;DHT22;75178;53.054;5.846;2024-02-14T10:02:46;10.40;99.90
84916;DHT22;75178;53.054;5.846;2024-02-14T10:05:32;10.40;99.90
84916;DHT22;75178;53.054;5.846;2024-02-14T10:08:16;10.40;99.90
84916;DHT22;75178;53.054;5.846;2024-02-14T10:11:01;10.40;99.90
84916;DHT22;75178;53.054;5.846;2024-02-14T10:13:46;10.40;99.90
84916;DHT22;75178;53.054;5.846;2024-02-14T10:16:30;10.40;99.90
84916;DHT22;75178;53.054;5.846;2024-02-14T10:19:15;10.50;99.90
84916;DHT22;75178;53.054;5.846;2024-02-14T10:22:01;10.50;99.90
84916;DHT22;75178;53.054;5.846;2024-02-14T10:24:46;10.50;99.90
84916;DHT22;75178;53.054;5.846;2024-02-14T10:27:30;10.50;99.90
84916;DHT22;75178;53.054;5.846;2024-02-14T10:30:15;10.50;99.90
84916;DHT22;75178;53.054;5.846;2024-02-14T10:32:59;10.50;99.90
84916;DHT22;75178;53.054;5.846;2024-02-14T10:35:43;10.50;99.90
84916;DHT22;75178;53.054;5.846;2024-02-14T10:38:31;10.50;99.90
84916;DHT22;75178;53.054;5.846;2024-02-14T10:41:16;10.50;99.90
84916;DHT22;75178;53.054;5.846;2024-02-14T10:44:01;10.50;99.90
84916;DHT22;75178;53.054;5.846;2024-02-14T10:46:46;10.50;99.90
84916;DHT22;75178;53.054;5.846;2024-02-14T10:49:33;10.60;99.90
84916;DHT22;75178;53.054;5.846;2024-02-14T10:52:19;10.50;99.90
84916;DHT22;75178;53.054;5.846;2024-02-14T10:55:06;10.60;99.90
84916;DHT22;75178;53.054;5.846;2024-02-14T10:57:51;10.60;99.90
84916;DHT22;75178;53.054;5.846;2024-02-14T11:00:39;10.60;99.90
84916;DHT22;75178;53.054;5.846;2024-02-14T11:03:24;10.60;99.90
84916;DHT22;75178;53.054;5.846;2024-02-14T11:06:09;10.60;99.90
84916;DHT22;75178;53.054;5.846;2024-02-14T11:09:02;10.60;99.90
84916;DHT22;75178;53.054;5.846;2024-02-14T11:11:47;10.60;99.90
84916;DHT22;75178;53.054;5.846;2024-02-14T11:14:32;10.60;99.90
84916;DHT22;75178;53.054;5.846;2024-02-14T11:17:19;10.60;99.90
84916;DHT22;75178;53.054;5.846;2024-02-14T11:20:13;10.60;99.90
84916;DHT22;75178;53.054;5.846;2024-02-14T11:23:02;10.50;99.90
84916;DHT22;75178;53.054;5.846;2024-02-14T11:25:47;10.50;99.90
84916;DHT22;75178;53.054;5.846;2024-02-14T11:28:36;10.50;99.90
84916;DHT22;75178;53.054;5.846;2024-02-14T11:31:21;10.50;99.90
84916;DHT22;75178;53.054;5.846;2024-02-14T11:34:05;10.50;99.90
84916;DHT22;75178;53.054;5.846;2024-02-14T11:36:51;10.50;99.90
84916;DHT22;75178;53.054;5.846;2024-02-14T11:39:36;10.50;99.90
84916;DHT22;75178;53.054;5.846;2024-02-14T11:42:21;10.60;99.90
84916;DHT22;75178;53.054;5.846;2024-02-14T11:45:08;10.60;99.90
84916;DHT22;75178;53.054;5.846;2024-02-14T11:47:52;10.70;99.90
84916;DHT22;75178;53.054;5.846;2024-02-14T11:50:36;10.70;99.90
84916;DHT22;75178;53.054;5.846;2024-02-14T11:53:22;10.70;99.90
84916;DHT22;75178;53.054;5.846;2024-02-14T11:56:06;10.70;99.90
84916;DHT22;75178;53.054;5.846;2024-02-14T11:58:51;10.70;99.90
84916;DHT22;75178;53.054;5.846;2024-02-14T12:01:38;10.70;99.90
84916;DHT22;75178;53.054;5.846;2024-02-14T12:04:22;10.70;99.90
84916;DHT22;75178;53.054;5.846;2024-02-14T12:07:07;10.70;99.90
84916;DHT22;75178;53.054;5.846;2024-02-14T12:09:51;10.70;99.90
84916;DHT22;75178;53.054;5.846;2024-02-14T12:12:35;10.70;99.90
84916;DHT22;75178;53.054;5.846;2024-02-14T12:15:20;10.70;99.90
84916;DHT22;75178;53.054;5.846;2024-02-14T12:18:06;10.60;99.90
84916;DHT22;75178;53.054;5.846;2024-02-14T12:20:51;10.70;99.90
84916;DHT22;75178;53.054;5.846;2024-02-14T12:23:36;10.70;99.90
84916;DHT22;75178;53.054;5.846;2024-02-14T12:26:20;10.70;99.90
84916;DHT22;75178;53.054;5.846;2024-02-14T12:29:05;10.70;99.90
84916;DHT22;75178;53.054;5.846;2024-02-14T12:31:50;10.70;99.90
84916;DHT22;75178;53.054;5.846;2024-02-14T12:34:35;10.70;99.90
84916;DHT22;75178;53.054;5.846;2024-02-14T12:37:22;10.70;99.90
84916;DHT22;75178;53.054;5.846;2024-02-14T12:40:07;10.70;99.90
84916;DHT22;75178;53.054;5.846;2024-02-14T12:42:52;10.60;99.90
84916;DHT22;75178;53.054;5.846;2024-02-14T12:45:36;10.60;99.90
84916;DHT22;75178;53.054;5.846;2024-02-14T12:48:23;10.60;99.90
84916;DHT22;75178;53.054;5.846;2024-02-14T12:51:09;10.60;99.90
84916;DHT22;75178;53.054;5.846;2024-02-14T12:53:53;10.60;99.90
84916;DHT22;75178;53.054;5.846;2024-02-14T12:56:37;10.60;99.90
84916;DHT22;75178;53.054;5.846;2024-02-14T12:59:21;10.70;99.90
84916;DHT22;75178;53.054;5.846;2024-02-14T13:02:05;10.60;99.90
84916;DHT22;75178;53.054;5.846;2024-02-14T13:04:49;10.60;99.90
84916;DHT22;75178;53.054;5.846;2024-02-14T13:07:35;10.60;99.90
84916;DHT22;75178;53.054;5.846;2024-02-14T13:10:19;10.60;99.90
84916;DHT22;75178;53.054;5.846;2024-02-14T13:13:03;10.60;99.90
84916;DHT22;75178;53.054;5.846;2024-02-14T13:15:48;10.60;99.90
84916;DHT22;75178;53.054;5.846;2024-02-14T13:18:32;10.70;99.90
84916;DHT22;75178;53.054;5.846;2024-02-14T13:21:16;10.60;99.90
84916;DHT22;75178;53.054;5.846;2024-02-14T13:24:01;10.60;99.90
84916;DHT22;75178;53.054;5.846;2024-02-14T13:26:46;10.60;99.90
84916;DHT22;75178;53.054;5.846;2024-02-14T13:29:30;10.70;99.90
84916;DHT22;75178;53.054;5.846;2024-02-14T13:32:14;10.60;99.90
84916;DHT22;75178;53.054;5.846;2024-02-14T13:34:58;10.70;99.90
84916;DHT22;75178;53.054;5.846;2024-02-14T13:37:42;10.70;99.90
84916;DHT22;75178;53.054;5.846;2024-02-14T13:40:28;10.70;99.90
84916;DHT22;75178;53.054;5.846;2024-02-14T13:43:12;10.70;99.90
84916;DHT22;75178;53.054;5.846;2024-02-14T13:45:56;10.80;99.90
84916;DHT22;75178;53.054;5.846;2024-02-14T13:48:40;10.80;99.90
84916;DHT22;75178;53.054;5.846;2024-02-14T13:51:25;10.80;99.90
84916;DHT22;75178;53.054;5.846;2024-02-14T13:54:09;10.80;99.90
84916;DHT22;75178;53.054;5.846;2024-02-14T13:56:54;10.80;99.90
84916;DHT22;75178;53.054;5.846;2024-02-14T13:59:39;10.80;99.90
84916;DHT22;75178;53.054;5.846;2024-02-14T14:02:23;10.80;99.90
84916;DHT22;75178;53.054;5.846;2024-02-14T14:05:07;10.80;99.90
84916;DHT22;75178;53.054;5.846;2024-02-14T14:07:51;10.80;99.90
84916;DHT22;75178;53.054;5.846;2024-02-14T14:10:35;10.80;99.90
84916;DHT22;75178;53.054;5.846;2024-02-14T14:13:21;10.80;99.90
84916;DHT22;75178;53.054;5.846;2024-02-14T14:16:05;10.90;99.90
84916;DHT22;75178;53.054;5.846;2024-02-14T14:18:50;10.80;99.90
84916;DHT22;75178;53.054;5.846;2024-02-14T14:21:34;10.80;99.90
84916;DHT22;75178;53.054;5.846;2024-02-14T14:24:18;10.80;99.90
84916;DHT22;75178;53.054;5.846;2024-02-14T14:27:02;10.80;99.90
84916;DHT22;75178;53.054;5.846;2024-02-14T14:29:48;10.80;99.90
84916;DHT22;75178;53.054;5.846;2024-02-14T14:32:32;10.90;99.90
84916;DHT22;75178;53.054;5.846;2024-02-14T14:35:16;10.90;99.90
84916;DHT22;75178;53.054;5.846;2024-02-14T14:38:00;10.90;99.90
84916;DHT22;75178;53.054;5.846;2024-02-14T14:40:44;10.90;99.90
84916;DHT22;75178;53.054;5.846;2024-02-14T14:43:28;10.90;99.90
84916;DHT22;75178;53.054;5.846;2024-02-14T14:46:14;10.90;99.90
84916;DHT22;75178;53.054;5.846;2024-02-14T14:48:58;10.90;99.90
84916;DHT22;75178;53.054;5.846;2024-02-14T14:51:42;10.80;99.90
84916;DHT22;75178;53.054;5.846;2024-02-14T14:54:27;10.90;99.90
84916;DHT22;75178;53.054;5.846;2024-02-14T14:57:11;10.80;99.90
84916;DHT22;75178;53.054;5.846;2024-02-14T14:59:55;10.80;99.90
84916;DHT22;75178;53.054;5.846;2024-02-14T15:02:41;10.90;99.90
84916;DHT22;75178;53.054;5.846;2024-02-14T15:05:25;10.80;99.90
84916;DHT22;75178;53.054;5.846;2024-02-14T15:08:09;10.80;99.90
84916;DHT22;75178;53.054;5.846;2024-02-14T15:10:53;10.80;99.90
84916;DHT22;75178;53.054;5.846;2024-02-14T15:13:38;10.80;99.90
84916;DHT22;75178;53.054;5.846;2024-02-14T15:16:22;10.80;99.90
84916;DHT22;75178;53.054;5.846;2024-02-14T15:19:07;10.80;99.90
84916;DHT22;75178;53.054;5.846;2024-02-14T15:21:51;10.80;99.90
84916;DHT22;75178;53.054;5.846;2024-02-14T15:24:35;10.80;99.90
84916;DHT22;75178;53.054;5.846;2024-02-14T15:27:19;10.80;99.90
84916;DHT22;75178;53.054;5.846;2024-02-14T15:30:04;10.80;99.90
84916;DHT22;75178;53.054;5.846;2024-02-14T15:32:49;10.80;99.90
84916;DHT22;75178;53.054;5.846;2024-02-14T15:35:34;10.80;99.90
84916;DHT22;75178;53.054;5.846;2024-02-14T15:38:19;10.80;99.90
84916;DHT22;75178;53.054;5.846;2024-02-14T15:41:03;10.80;99.90
84916;DHT22;75178;53.054;5.846;2024-02-14T15:43:48;10.80;99.90
84916;DHT22;75178;53.054;5.846;2024-02-14T15:46:32;10.70;99.90
84916;DHT22;75178;53.054;5.846;2024-02-14T15:49:16;10.80;99.90
84916;DHT22;75178;53.054;5.846;2024-02-14T15:52:01;10.70;99.90
84916;DHT22;75178;53.054;5.846;2024-02-14T15:54:48;10.70;99.90
84916;DHT22;75178;53.054;5.846;2024-02-14T15:57:36;10.80;99.90
84916;DHT22;75178;53.054;5.846;2024-02-14T16:00:20;10.70;99.90
84916;DHT22;75178;53.054;5.846;2024-02-14T16:03:09;10.70;99.90
84916;DHT22;75178;53.054;5.846;2024-02-14T16:05:55;10.70;99.90
84916;DHT22;75178;53.054;5.846;2024-02-14T16:08:40;10.70;99.90
84916;DHT22;75178;53.054;5.846;2024-02-14T16:11:40;10.70;99.90
84916;DHT22;75178;53.054;5.846;2024-02-14T16:14:24;10.70;99.90
84916;DHT22;75178;53.054;5.846;2024-02-14T16:17:09;10.70;99.90
84916;DHT22;75178;53.054;5.846;2024-02-14T16:19:54;10.70;99.90
84916;DHT22;75178;53.054;5.846;2024-02-14T16:22:41;10.70;99.90
84916;DHT22;75178;53.054;5.846;2024-02-14T16:25:30;10.70;99.90
84916;DHT22;75178;53.054;5.846;2024-02-14T16:28:14;10.70;99.90
84916;DHT22;75178;53.054;5.846;2024-02-14T16:30:58;10.70;99.90
84916;DHT22;75178;53.054;5.846;2024-02-14T16:33:42;10.70;99.90
84916;DHT22;75178;53.054;5.846;2024-02-14T16:36:26;10.70;99.90
84916;DHT22;75178;53.054;5.846;2024-02-14T16:39:10;10.70;99.90
84916;DHT22;75178;53.054;5.846;2024-02-14T16:41:56;10.70;99.90
84916;DHT22;75178;53.054;5.846;2024-02-14T16:44:40;10.60;99.90
84916;DHT22;75178;53.054;5.846;2024-02-14T16:47:24;10.60;99.90
84916;DHT22;75178;53.054;5.846;2024-02-14T16:50:09;10.60;99.90
84916;DHT22;75178;53.054;5.846;2024-02-14T16:52:53;10.60;99.90
84916;DHT22;75178;53.054;5.846;2024-02-14T16:55:37;10.60;99.90
84916;DHT22;75178;53.054;5.846;2024-02-14T16:58:22;10.60;99.90
84916;DHT22;75178;53.054;5.846;2024-02-14T17:01:07;10.60;99.90
84916;DHT22;75178;53.054;5.846;2024-02-14T17:03:51;10.60;99.90
84916;DHT22;75178;53.054;5.846;2024-02-14T17:06:35;10.50;99.90
84916;DHT22;75178;53.054;5.846;2024-02-14T17:09:20;10.50;99.90
84916;DHT22;75178;53.054;5.846;2024-02-14T17:12:05;10.50;99.90
84916;DHT22;75178;53.054;5.846;2024-02-14T17:14:51;10.50;99.90
84916;DHT22;75178;53.054;5.846;2024-02-14T17:17:35;10.50;99.90
84916;DHT22;75178;53.054;5.846;2024-02-14T17:20:19;10.50;99.90
84916;DHT22;75178;53.054;5.846;2024-02-14T17:23:03;10.50;99.90
84916;DHT22;75178;53.054;5.846;2024-02-14T17:25:47;10.40;99.90
84916;DHT22;75178;53.054;5.846;2024-02-14T17:28:32;10.40;99.90